createdAt,value
2018-03-28T00:01:17.203Z,10.40
2018-03-28T00:03:45.464Z,10.27
2018-03-28T00:06:13.745Z,9.93
2018-03-28T00:08:42.001Z,9.87
2018-03-28T00:11:11.058Z,10.70
2018-03-28T00:13:39.322Z,8.00
2018-03-28T00:16:08.341Z,8.97
2018-03-28T00:18:36.617Z,10.43
2018-03-28T00:21:04.905Z,11.20
2018-03-28T00:23:33.174Z,9.30
2018-03-28T00:26:01.453Z,9.97
2018-03-28T00:28:29.717Z,10.50
2018-03-28T00:30:57.977Z,11.47
2018-03-28T00:33:26.252Z,10.30
2018-03-28T00:35:54.512Z,10.17
2018-03-28T00:38:22.779Z,10.60
2018-03-28T00:40:51.049Z,10.63
2018-03-28T00:43:19.329Z,10.77
2018-03-28T00:45:47.588Z,12.40
2018-03-28T00:48:15.856Z,10.55
2018-03-28T00:50:44.904Z,11.90
2018-03-28T00:53:13.239Z,13.62
2018-03-28T00:55:41.596Z,13.30
2018-03-28T00:58:09.936Z,12.00
2018-03-28T01:00:38.289Z,11.10
2018-03-28T01:03:06.584Z,11.33
2018-03-28T01:05:34.865Z,13.13
2018-03-28T01:08:03.138Z,10.60
2018-03-28T01:10:32.169Z,11.47
2018-03-28T01:13:00.452Z,11.70
2018-03-28T01:15:29.488Z,14.00
2018-03-28T01:17:57.797Z,11.70
2018-03-28T01:20:26.040Z,11.33
2018-03-28T01:22:54.353Z,13.60
2018-03-28T01:25:22.608Z,12.73
2018-03-28T01:27:50.887Z,10.60
2018-03-28T01:30:19.163Z,10.17
2018-03-28T01:32:47.432Z,11.20
2018-03-28T01:35:15.744Z,11.07
2018-03-28T01:37:44.015Z,11.70
2018-03-28T01:40:12.280Z,9.77
2018-03-28T01:42:40.556Z,10.27
2018-03-28T01:45:08.824Z,10.83
2018-03-28T01:47:37.085Z,11.10
2018-03-28T01:50:05.380Z,10.07
2018-03-28T01:52:33.644Z,9.67
2018-03-28T01:55:01.914Z,10.60
2018-03-28T01:57:30.196Z,9.47
2018-03-28T01:59:58.457Z,10.40
2018-03-28T02:02:26.738Z,8.93
2018-03-28T02:04:55.006Z,9.57
2018-03-28T02:07:23.269Z,9.23
2018-03-28T02:09:51.557Z,9.50
2018-03-28T02:12:19.816Z,13.50
2018-03-28T02:14:48.084Z,9.32
2018-03-28T02:17:17.133Z,10.37
2018-03-28T02:19:45.397Z,9.00
2018-03-28T02:22:13.666Z,11.10
2018-03-28T02:24:41.952Z,10.30
2018-03-28T02:27:10.214Z,10.37
2018-03-28T02:29:38.478Z,11.10
2018-03-28T02:32:06.760Z,12.30
2018-03-28T02:34:35.029Z,12.23
2018-03-28T02:37:03.289Z,7.83
2018-03-28T02:39:32.349Z,8.80
2018-03-28T02:42:00.609Z,9.20
2018-03-28T02:44:28.883Z,9.27
2018-03-28T02:46:57.168Z,8.60
2018-03-28T02:49:25.428Z,9.40
2018-03-28T02:51:53.710Z,9.47
2018-03-28T02:54:21.989Z,9.70
2018-03-28T02:56:50.253Z,11.73
2018-03-28T02:59:18.518Z,9.33
2018-03-28T03:01:46.797Z,8.00
2018-03-28T03:04:15.899Z,9.00
2018-03-28T03:06:44.150Z,8.80
2018-03-28T03:09:12.431Z,9.37
2018-03-28T03:11:40.692Z,8.57
2018-03-28T03:14:09.733Z,9.97
2018-03-28T03:16:38.015Z,9.23
2018-03-28T03:19:06.281Z,9.20
2018-03-28T03:21:34.549Z,7.60
2018-03-28T03:24:02.866Z,8.00
2018-03-28T03:26:31.135Z,7.20
2018-03-28T03:28:59.401Z,7.63
2018-03-28T03:31:27.671Z,7.37
2018-03-28T03:33:55.944Z,7.17
2018-03-28T03:36:24.201Z,9.50
2018-03-28T03:38:52.479Z,7.17
2018-03-28T03:41:20.793Z,6.40
2018-03-28T03:43:49.052Z,6.93
2018-03-28T03:46:17.328Z,8.67
2018-03-28T03:48:45.588Z,7.20
2018-03-28T03:51:13.865Z,5.90
2018-03-28T03:53:42.121Z,7.00
2018-03-28T03:56:10.414Z,7.90
2018-03-28T03:58:38.680Z,7.60
2018-03-28T04:01:06.937Z,8.67
2018-03-28T04:03:35.200Z,6.20
2018-03-28T04:06:04.236Z,6.17
2018-03-28T04:08:32.501Z,6.70
2018-03-28T04:11:00.760Z,9.70
2018-03-28T04:13:29.037Z,8.83
2018-03-28T04:15:57.299Z,8.20
2018-03-28T04:18:26.329Z,7.30
2018-03-28T04:20:54.632Z,7.00
2018-03-28T04:23:22.896Z,8.20
2018-03-28T04:25:51.176Z,6.40
2018-03-28T04:28:19.444Z,6.70
2018-03-28T04:30:47.710Z,8.47
2018-03-28T04:33:15.988Z,6.13
2018-03-28T04:35:44.264Z,6.90
2018-03-28T04:38:12.532Z,8.07
2018-03-28T04:40:40.841Z,5.87
2018-03-28T04:43:09.214Z,8.60
2018-03-28T04:45:37.478Z,9.03
2018-03-28T04:48:05.766Z,5.87
2018-03-28T04:50:34.026Z,7.70
2018-03-28T04:53:02.286Z,6.60
2018-03-28T04:55:30.605Z,7.50
2018-03-28T04:57:58.868Z,6.60
2018-03-28T05:00:27.124Z,7.10
2018-03-28T05:02:55.414Z,6.60
2018-03-28T05:05:23.672Z,7.17
2018-03-28T05:07:51.937Z,6.87
2018-03-28T05:10:20.251Z,6.87
2018-03-28T05:12:48.491Z,7.20
2018-03-28T05:15:16.746Z,7.03
2018-03-28T05:17:45.800Z,10.57
2018-03-28T05:20:14.066Z,7.40
2018-03-28T05:22:42.365Z,8.07
2018-03-28T05:25:10.626Z,7.37
2018-03-28T05:27:38.896Z,7.03
2018-03-28T05:30:07.201Z,6.20
2018-03-28T05:32:35.436Z,7.33
2018-03-28T05:35:03.721Z,6.60
2018-03-28T05:37:31.986Z,7.70
2018-03-28T05:40:00.275Z,8.30
2018-03-28T05:42:28.540Z,6.40
2018-03-28T05:44:56.808Z,6.67
2018-03-28T05:47:25.084Z,8.10
2018-03-28T05:49:53.354Z,6.25
2018-03-28T05:52:21.616Z,8.43
2018-03-28T05:54:49.905Z,6.30
2018-03-28T05:57:18.171Z,6.87
2018-03-28T05:59:46.437Z,8.43
2018-03-28T06:02:15.483Z,7.50
2018-03-28T06:04:43.760Z,6.27
2018-03-28T06:07:12.797Z,7.20
2018-03-28T06:09:41.838Z,6.90
2018-03-28T06:12:10.099Z,6.60
2018-03-28T06:14:38.375Z,5.87
2018-03-28T06:17:06.656Z,5.70
2018-03-28T06:19:34.992Z,6.33
2018-03-28T06:22:03.189Z,5.33
2018-03-28T06:24:31.477Z,7.03
2018-03-28T06:26:59.732Z,5.63
2018-03-28T06:29:27.993Z,6.47
2018-03-28T06:31:57.044Z,6.77
2018-03-28T06:34:25.338Z,4.82
2018-03-28T06:36:53.584Z,5.50
2018-03-28T06:39:21.869Z,7.67
2018-03-28T06:41:50.129Z,5.50
2018-03-28T06:44:18.394Z,6.53
2018-03-28T06:46:46.665Z,6.07
2018-03-28T06:49:14.930Z,6.10
2018-03-28T06:51:43.964Z,6.53
2018-03-28T06:54:12.254Z,5.93
2018-03-28T06:56:40.513Z,5.43
2018-03-28T06:59:08.768Z,5.07
2018-03-28T07:01:37.048Z,5.17
2018-03-28T07:04:05.305Z,5.65
2018-03-28T07:06:34.326Z,6.27
2018-03-28T07:09:02.596Z,5.27
2018-03-28T07:11:30.862Z,6.77
2018-03-28T07:13:59.127Z,5.70
2018-03-28T07:16:28.175Z,5.17
2018-03-28T07:18:56.433Z,5.27
2018-03-28T07:21:24.677Z,4.57
2018-03-28T07:23:53.027Z,4.80
2018-03-28T07:26:22.062Z,5.70
2018-03-28T07:28:50.324Z,4.83
2018-03-28T07:31:18.616Z,4.60
2018-03-28T07:33:46.922Z,5.17
2018-03-28T07:36:15.252Z,5.30
2018-03-28T07:38:43.642Z,4.50
2018-03-28T07:41:11.983Z,5.70
2018-03-28T07:43:41.071Z,4.45
2018-03-28T07:46:10.174Z,5.10
2018-03-28T07:48:39.290Z,4.50
2018-03-28T07:51:07.607Z,5.40
2018-03-28T07:53:35.976Z,4.50
2018-03-28T07:56:04.286Z,3.97
2018-03-28T07:58:32.650Z,3.58
2018-03-28T08:01:01.703Z,4.90
2018-03-28T08:03:30.056Z,4.30
2018-03-28T08:05:59.148Z,4.13
2018-03-28T08:08:28.208Z,3.73
2018-03-28T08:10:56.465Z,3.43
2018-03-28T08:13:24.719Z,3.57
2018-03-28T08:15:53.756Z,4.47
2018-03-28T08:18:22.031Z,4.00
2018-03-28T08:20:51.046Z,3.40
2018-03-28T08:23:19.320Z,4.23
2018-03-28T08:25:47.585Z,3.60
2018-03-28T08:28:16.619Z,3.13
2018-03-28T08:30:45.756Z,3.20
2018-03-28T08:33:14.017Z,3.55
2018-03-28T08:35:42.276Z,3.60
2018-03-28T08:38:10.559Z,2.40
2018-03-28T08:40:38.820Z,3.57
2018-03-28T08:43:07.859Z,6.77
2018-03-28T08:45:36.141Z,2.90
2018-03-28T08:48:04.413Z,2.80
2018-03-28T08:50:32.717Z,2.80
2018-03-28T08:53:00.996Z,2.57
2018-03-28T08:55:29.260Z,3.50
2018-03-28T08:57:57.535Z,2.10
2018-03-28T09:00:25.825Z,1.87
2018-03-28T09:02:55.348Z,1.47
2018-03-28T09:05:24.375Z,1.33
2018-03-28T09:07:52.657Z,1.60
2018-03-28T09:10:20.917Z,1.30
2018-03-28T09:12:49.184Z,1.93
2018-03-28T09:15:18.237Z,1.30
2018-03-28T09:17:46.501Z,1.53
2018-03-28T09:20:14.793Z,1.30
2018-03-28T09:22:43.136Z,1.33
2018-03-28T09:25:11.466Z,1.50
2018-03-28T09:27:40.567Z,1.40
2018-03-28T09:30:08.942Z,1.80
2018-03-28T09:32:37.986Z,1.40
2018-03-28T09:35:06.241Z,1.50
2018-03-28T09:37:34.528Z,1.80
2018-03-28T09:40:02.792Z,4.37
2018-03-28T09:42:31.052Z,1.50
2018-03-28T09:45:00.186Z,1.60
2018-03-28T09:47:28.440Z,1.70
2018-03-28T09:49:56.708Z,1.30
2018-03-28T09:52:24.989Z,1.90
2018-03-28T09:54:53.266Z,1.90
2018-03-28T09:57:21.528Z,2.00
2018-03-28T09:59:50.580Z,1.90
2018-03-28T10:02:18.851Z,2.30
2018-03-28T10:04:49.930Z,2.60
2018-03-28T10:07:19.001Z,2.10
2018-03-28T10:09:47.317Z,2.40
2018-03-28T10:12:15.546Z,2.27
2018-03-28T10:14:43.805Z,2.47
2018-03-28T10:17:12.072Z,2.60
2018-03-28T10:19:40.373Z,2.60
2018-03-28T10:22:08.636Z,2.57
2018-03-28T10:24:36.902Z,2.50
2018-03-28T10:27:05.180Z,3.00
2018-03-28T10:29:33.457Z,3.10
2018-03-28T10:32:01.728Z,2.80
2018-03-28T10:34:30.012Z,3.33
2018-03-28T10:36:58.284Z,3.40
2018-03-28T10:39:26.545Z,3.13
2018-03-28T10:41:54.845Z,3.47
2018-03-28T10:44:23.100Z,3.70
2018-03-28T10:46:51.380Z,3.10
2018-03-28T10:49:19.660Z,3.85
2018-03-28T10:51:47.925Z,3.40
2018-03-28T10:54:16.188Z,3.67
2018-03-28T10:56:44.482Z,4.13
2018-03-28T10:59:12.745Z,3.40
2018-03-28T11:01:41.005Z,3.47
2018-03-28T11:04:10.052Z,4.37
2018-03-28T11:06:38.316Z,4.20
2018-03-28T11:09:06.576Z,3.30
2018-03-28T11:11:35.598Z,3.43
2018-03-28T11:14:03.874Z,4.85
2018-03-28T11:16:32.134Z,4.00
2018-03-28T11:19:00.417Z,4.70
2018-03-28T11:21:28.689Z,6.30
2018-03-28T11:23:56.971Z,6.57
2018-03-28T11:26:25.260Z,4.93
2018-03-28T11:28:53.525Z,4.67
2018-03-28T11:31:21.788Z,4.90
2018-03-28T11:33:50.072Z,5.00
2018-03-28T11:36:18.342Z,5.80
2018-03-28T11:38:46.607Z,5.40
2018-03-28T11:41:14.893Z,5.83
2018-03-28T11:43:43.153Z,5.57
2018-03-28T11:46:11.425Z,6.20
2018-03-28T11:48:39.712Z,5.73
2018-03-28T11:51:07.986Z,6.37
2018-03-28T11:53:36.266Z,5.37
2018-03-28T11:56:04.545Z,5.47
2018-03-28T11:58:32.819Z,5.20
2018-03-28T12:01:01.096Z,5.60
2018-03-28T12:03:29.390Z,4.80
2018-03-28T12:05:57.645Z,4.37
2018-03-28T12:08:25.911Z,4.77
2018-03-28T12:10:54.188Z,4.87
2018-03-28T12:13:22.476Z,5.33
2018-03-28T12:15:50.741Z,5.10
2018-03-28T12:18:19.026Z,4.80
2018-03-28T12:20:47.284Z,3.70
2018-03-28T12:23:15.553Z,4.63
2018-03-28T12:25:44.597Z,4.30
2018-03-28T12:28:12.869Z,4.30
2018-03-28T12:30:41.126Z,4.77
2018-03-28T12:33:09.417Z,5.30
2018-03-28T12:35:37.689Z,5.23
2018-03-28T12:38:05.957Z,4.70
2018-03-28T12:40:34.236Z,4.80
2018-03-28T12:43:02.497Z,4.23
2018-03-28T12:45:30.802Z,4.27
2018-03-28T12:47:59.049Z,5.10
2018-03-28T12:50:27.307Z,5.87
2018-03-28T12:52:56.369Z,5.77
2018-03-28T12:55:24.720Z,5.83
2018-03-28T12:57:52.884Z,5.47
2018-03-28T13:00:21.161Z,6.10
2018-03-28T13:02:49.441Z,6.20
2018-03-28T13:05:17.754Z,6.03
2018-03-28T13:07:45.978Z,5.93
2018-03-28T13:10:14.265Z,6.67
2018-03-28T13:12:42.531Z,5.63
2018-03-28T13:15:10.810Z,6.40
2018-03-28T13:17:39.084Z,6.30
2018-03-28T13:20:07.348Z,5.97
2018-03-28T13:22:35.620Z,6.10
2018-03-28T13:25:03.917Z,5.93
2018-03-28T13:27:32.176Z,5.70
2018-03-28T13:30:00.440Z,5.10
2018-03-28T13:32:29.517Z,5.23
2018-03-28T13:34:57.784Z,5.90
2018-03-28T13:37:26.051Z,5.30
2018-03-28T13:39:54.336Z,5.47
2018-03-28T13:42:22.600Z,5.30
2018-03-28T13:44:50.871Z,6.10
2018-03-28T13:47:19.149Z,6.07
2018-03-28T13:49:47.412Z,5.43
2018-03-28T13:52:15.684Z,4.83
2018-03-28T13:54:43.969Z,4.03
2018-03-28T13:57:12.229Z,4.90
2018-03-28T13:59:40.501Z,4.50
2018-03-28T14:02:08.774Z,4.40
2018-03-28T14:04:37.037Z,4.60
2018-03-28T14:07:05.304Z,4.93
2018-03-28T14:09:34.353Z,4.10
2018-03-28T14:12:02.616Z,4.60
2018-03-28T14:14:30.877Z,4.47
2018-03-28T14:16:59.171Z,4.27
2018-03-28T14:19:27.436Z,4.83
2018-03-28T14:21:55.711Z,3.87
2018-03-28T14:24:23.982Z,5.73
2018-03-28T14:26:52.254Z,4.40
2018-03-28T14:29:20.516Z,4.50
2018-03-28T14:31:48.986Z,5.23
2018-03-28T14:34:18.020Z,4.33
2018-03-28T14:36:46.300Z,4.40
2018-03-28T14:39:15.441Z,5.07
2018-03-28T14:41:44.498Z,4.10
2018-03-28T14:44:12.760Z,5.00
2018-03-28T14:46:41.124Z,4.93
2018-03-28T14:49:09.396Z,5.20
2018-03-28T14:51:37.657Z,4.53
2018-03-28T14:54:06.765Z,4.77
2018-03-28T14:56:34.974Z,4.60
2018-03-28T14:59:03.239Z,6.17
2018-03-28T15:01:31.527Z,4.90
2018-03-28T15:03:59.816Z,4.40
2018-03-28T15:06:28.087Z,5.20
2018-03-28T15:08:56.369Z,5.23
2018-03-28T15:11:24.625Z,5.80
2018-03-28T15:13:52.940Z,5.33
2018-03-28T15:16:21.175Z,5.23
2018-03-28T15:18:49.466Z,5.70
2018-03-28T15:21:17.781Z,5.13
2018-03-28T15:23:46.806Z,5.20
2018-03-28T15:26:15.057Z,5.07
2018-03-28T15:28:44.237Z,4.63
2018-03-28T15:31:13.260Z,4.50
2018-03-28T15:33:41.529Z,4.97
2018-03-28T15:36:09.796Z,5.30
2018-03-28T15:38:38.865Z,4.40
2018-03-28T15:41:07.133Z,3.43
2018-03-28T15:43:35.418Z,3.33
2018-03-28T15:46:03.673Z,4.30
2018-03-28T15:48:32.051Z,4.05
2018-03-28T15:51:00.505Z,3.87
2018-03-28T15:53:29.971Z,4.70
2018-03-28T15:55:58.430Z,3.87
2018-03-28T15:58:27.489Z,4.40
2018-03-28T16:00:55.889Z,4.70
2018-03-28T16:03:24.549Z,4.97
2018-03-28T16:05:52.942Z,5.20
2018-03-28T16:08:21.331Z,3.40
2018-03-28T16:10:49.705Z,3.80
2018-03-28T16:13:18.640Z,3.97
2018-03-28T16:15:48.093Z,4.40
2018-03-28T16:18:17.378Z,3.57
2018-03-28T16:20:45.801Z,3.70
2018-03-28T16:23:14.339Z,4.77
2018-03-28T16:25:42.630Z,5.57
2018-03-28T16:28:10.952Z,4.37
2018-03-28T16:30:40.352Z,4.47
2018-03-28T16:33:10.575Z,4.93
2018-03-28T16:35:39.934Z,4.20
2018-03-28T16:38:08.527Z,4.53
2018-03-28T16:40:38.675Z,4.77
2018-03-28T16:43:07.718Z,3.60
2018-03-28T16:45:37.580Z,3.10
2018-03-28T16:48:07.606Z,5.37
2018-03-28T16:50:37.170Z,4.90
2018-03-28T16:53:07.022Z,4.17
2018-03-28T16:55:36.349Z,4.87
2018-03-28T16:58:05.744Z,5.20
2018-03-28T17:00:35.821Z,5.13
2018-03-28T17:03:05.140Z,4.23
2018-03-28T17:05:34.649Z,4.33
2018-03-28T17:08:04.202Z,4.97
2018-03-28T17:10:34.763Z,3.80
2018-03-28T17:13:04.502Z,5.43
2018-03-28T17:15:34.244Z,8.97
2018-03-28T17:18:05.057Z,6.15
2018-03-28T17:20:39.054Z,7.00
2018-03-28T17:23:09.225Z,8.30
2018-03-28T17:25:39.986Z,6.90
2018-03-28T17:28:09.802Z,6.83
2018-03-28T17:30:39.895Z,6.43
2018-03-28T17:33:10.004Z,6.90
2018-03-28T17:35:39.726Z,6.80
2018-03-28T17:38:10.082Z,5.30
2018-03-28T17:40:40.044Z,6.80
2018-03-28T17:43:10.965Z,7.87
2018-03-28T17:45:42.540Z,5.93
2018-03-28T17:48:13.242Z,6.60
2018-03-28T17:50:43.233Z,5.90
2018-03-28T17:53:13.220Z,5.80
2018-03-28T17:55:43.867Z,7.00
2018-03-28T17:58:13.873Z,6.20
2018-03-28T18:00:43.770Z,6.50
2018-03-28T18:03:14.806Z,6.50
2018-03-28T18:05:45.556Z,6.43
2018-03-28T18:08:15.737Z,6.13
2018-03-28T18:10:44.966Z,5.57
2018-03-28T18:13:15.197Z,6.03
2018-03-28T18:15:46.047Z,6.73
2018-03-28T18:18:15.473Z,5.70
2018-03-28T18:20:44.777Z,6.03
2018-03-28T18:23:14.083Z,6.23
2018-03-28T18:25:43.604Z,6.20
2018-03-28T18:28:12.892Z,6.97
2018-03-28T18:30:42.155Z,6.27
2018-03-28T18:33:12.484Z,6.93
2018-03-28T18:35:41.799Z,8.20
2018-03-28T18:38:11.936Z,6.57
2018-03-28T18:40:41.810Z,6.90
2018-03-28T18:43:12.846Z,8.25
2018-03-28T18:45:42.970Z,8.33
2018-03-28T18:48:12.520Z,6.97
2018-03-28T18:50:42.473Z,6.03
2018-03-28T18:53:12.970Z,7.60
2018-03-28T18:55:42.842Z,6.73
2018-03-28T18:58:12.643Z,9.80
2018-03-28T19:00:42.539Z,7.20
2018-03-28T19:03:12.701Z,6.90
2018-03-28T19:05:42.468Z,6.47
2018-03-28T19:08:12.821Z,6.83
2018-03-28T19:10:42.699Z,7.43
2018-03-28T19:13:13.284Z,6.17
2018-03-28T19:15:43.725Z,6.83
2018-03-28T19:18:15.090Z,7.90
2018-03-28T19:20:45.060Z,8.50
2018-03-28T19:23:15.134Z,7.07
2018-03-28T19:25:44.973Z,7.90
2018-03-28T19:28:15.228Z,8.47
2018-03-28T19:30:46.015Z,7.03
2018-03-28T19:33:16.160Z,7.40
2018-03-28T19:35:46.180Z,7.23
2018-03-28T19:38:16.232Z,8.10
2018-03-28T19:40:46.026Z,7.63
2018-03-28T19:43:16.039Z,7.47
2018-03-28T19:45:45.796Z,7.53
2018-03-28T19:48:15.387Z,7.67
2018-03-28T19:50:45.225Z,7.40
2018-03-28T19:53:16.427Z,6.82
2018-03-28T19:55:46.186Z,6.70
2018-03-28T19:58:17.117Z,6.03
2018-03-28T20:00:47.052Z,6.17
2018-03-28T20:03:18.804Z,6.40
2018-03-28T20:05:48.638Z,6.87
2018-03-28T20:08:19.279Z,9.70
2018-03-28T20:10:49.381Z,12.03
2018-03-28T20:13:19.509Z,6.70
2018-03-28T20:15:49.394Z,5.30
2018-03-28T20:18:20.141Z,2.50
2018-03-28T20:20:49.989Z,3.10
2018-03-28T20:23:21.268Z,2.47
2018-03-28T20:25:52.340Z,2.07
2018-03-28T20:28:22.356Z,2.20
2018-03-28T20:30:52.825Z,1.83
2018-03-28T20:33:22.492Z,2.60
2018-03-28T20:35:52.831Z,2.80
2018-03-28T20:38:22.572Z,2.80
2018-03-28T20:40:52.459Z,3.00
2018-03-28T20:43:23.577Z,3.53
2018-03-28T20:45:53.639Z,2.93
2018-03-28T20:48:23.304Z,3.80
2018-03-28T20:50:53.261Z,3.77
2018-03-28T20:53:24.802Z,4.33
2018-03-28T20:55:55.305Z,4.97
2018-03-28T20:58:26.048Z,5.80
2018-03-28T21:00:56.879Z,8.43
2018-03-28T21:03:26.802Z,3.60
2018-03-28T21:05:56.730Z,2.50
2018-03-28T21:08:26.603Z,2.53
2018-03-28T21:10:56.418Z,1.67
2018-03-28T21:13:27.129Z,2.10
2018-03-28T21:15:57.660Z,2.23
2018-03-28T21:18:28.423Z,1.70
2018-03-28T21:20:59.098Z,1.80
2018-03-28T21:23:29.082Z,1.50
2018-03-28T21:25:59.846Z,1.47
2018-03-28T21:28:29.712Z,1.27
2018-03-28T21:31:01.295Z,2.20
2018-03-28T21:33:31.419Z,1.60
2018-03-28T21:36:01.823Z,1.90
2018-03-28T21:38:32.581Z,2.33
2018-03-28T21:41:02.278Z,2.77
2018-03-28T21:43:32.147Z,2.40
2018-03-28T21:46:02.268Z,3.60
2018-03-28T21:48:32.395Z,3.50
2018-03-28T21:51:02.190Z,3.73
2018-03-28T21:53:32.070Z,3.10
2018-03-28T21:56:01.901Z,3.60
2018-03-28T21:58:31.773Z,3.57
2018-03-28T22:01:02.560Z,4.80
2018-03-28T22:03:32.725Z,4.47
2018-03-28T22:06:02.456Z,4.77
2018-03-28T22:08:32.303Z,5.40
2018-03-28T22:11:00.928Z,4.80
2018-03-28T22:13:29.243Z,5.50
2018-03-28T22:15:57.553Z,4.67
2018-03-28T22:18:26.578Z,5.37
2018-03-28T22:20:54.828Z,4.27
2018-03-28T22:23:23.874Z,4.40
2018-03-28T22:25:52.130Z,5.10
2018-03-28T22:28:20.405Z,6.63
2018-03-28T22:30:48.741Z,6.23
2018-03-28T22:33:17.764Z,5.93
2018-03-28T22:35:46.031Z,6.90
2018-03-28T22:38:15.066Z,6.43
2018-03-28T22:40:43.319Z,5.83
2018-03-28T22:43:11.600Z,6.28
2018-03-28T22:45:39.860Z,5.90
2018-03-28T22:48:08.113Z,6.00
2018-03-28T22:50:37.141Z,5.63
2018-03-28T22:53:05.399Z,6.03
2018-03-28T22:55:33.668Z,6.27
2018-03-28T22:58:02.709Z,4.97
2018-03-28T23:00:30.972Z,5.27
2018-03-28T23:02:59.234Z,5.67
2018-03-28T23:05:27.519Z,4.40
2018-03-28T23:07:55.827Z,4.40
2018-03-28T23:10:24.030Z,4.90
2018-03-28T23:12:53.101Z,4.20
2018-03-28T23:15:21.355Z,5.40
2018-03-28T23:17:49.624Z,5.70
2018-03-28T23:20:17.893Z,4.83
2018-03-28T23:22:46.152Z,5.73
2018-03-28T23:25:14.404Z,6.37
2018-03-28T23:27:43.444Z,6.30
2018-03-28T23:30:11.695Z,6.37
2018-03-28T23:32:39.949Z,4.87
2018-03-28T23:35:08.985Z,5.30
2018-03-28T23:37:37.240Z,5.37
2018-03-28T23:40:05.505Z,4.60
2018-03-28T23:42:34.525Z,4.60
2018-03-28T23:45:02.800Z,4.77
2018-03-28T23:47:31.073Z,5.10
2018-03-28T23:49:59.337Z,5.03
2018-03-28T23:52:27.616Z,4.57
2018-03-28T23:54:55.867Z,3.90
2018-03-28T23:57:24.929Z,3.07
2018-03-28T23:59:53.196Z,3.20
